sensor_id;sensor_type;location;lat;lon;timestamp;temperature;humidity
48206;DHT22;33995;48.202;16.260;2023-03-08T00:01:23;3.60;99.90
48206;DHT22;33995;48.202;16.260;2023-03-08T00:03:54;3.70;99.90
48206;DHT22;33995;48.202;16.260;2023-03-08T00:06:22;3.90;99.90
48206;DHT22;33995;48.202;16.260;2023-03-08T00:08:57;4.00;99.90
48206;DHT22;33995;48.202;16.260;2023-03-08T00:11:27;4.10;99.90
48206;DHT22;33995;48.202;16.260;2023-03-08T00:13:55;4.20;99.90
48206;DHT22;33995;48.202;16.260;2023-03-08T00:16:24;4.30;99.90
48206;DHT22;33995;48.202;16.260;2023-03-08T00:18:53;4.50;99.90
48206;DHT22;33995;48.202;16.260;2023-03-08T00:21:20;4.60;99.90
48206;DHT22;33995;48.202;16.260;2023-03-08T00:23:50;4.70;99.90
48206;DHT22;33995;48.202;16.260;2023-03-08T00:26:18;4.90;99.90
48206;DHT22;33995;48.202;16.260;2023-03-08T00:28:48;5.00;99.90
48206;DHT22;33995;48.202;16.260;2023-03-08T00:31:17;5.10;99.90
48206;DHT22;33995;48.202;16.260;2023-03-08T00:33:44;5.20;99.90
48206;DHT22;33995;48.202;16.260;2023-03-08T00:36:18;5.30;99.90
48206;DHT22;33995;48.202;16.260;2023-03-08T00:38:48;5.30;99.90
48206;DHT22;33995;48.202;16.260;2023-03-08T00:41:22;5.40;99.90
48206;DHT22;33995;48.202;16.260;2023-03-08T00:43:49;5.50;99.90
48206;DHT22;33995;48.202;16.260;2023-03-08T00:46:17;5.50;99.90
48206;DHT22;33995;48.202;16.260;2023-03-08T00:48:44;5.50;99.90
48206;DHT22;33995;48.202;16.260;2023-03-08T00:51:15;5.60;99.90
48206;DHT22;33995;48.202;16.260;2023-03-08T00:53:43;5.70;99.90
48206;DHT22;33995;48.202;16.260;2023-03-08T00:56:11;5.80;99.90
48206;DHT22;33995;48.202;16.260;2023-03-08T00:58:39;5.80;99.90
48206;DHT22;33995;48.202;16.260;2023-03-08T01:01:08;5.90;99.90
48206;DHT22;33995;48.202;16.260;2023-03-08T01:03:37;5.90;99.90
48206;DHT22;33995;48.202;16.260;2023-03-08T01:06:10;6.00;99.90
48206;DHT22;33995;48.202;16.260;2023-03-08T01:08:40;6.00;99.90
48206;DHT22;33995;48.202;16.260;2023-03-08T01:11:21;6.00;99.90
48206;DHT22;33995;48.202;16.260;2023-03-08T01:13:49;6.00;99.90
48206;DHT22;33995;48.202;16.260;2023-03-08T01:16:29;5.90;99.90
48206;DHT22;33995;48.202;16.260;2023-03-08T01:18:59;6.00;99.90
48206;DHT22;33995;48.202;16.260;2023-03-08T01:21:28;6.00;99.90
48206;DHT22;33995;48.202;16.260;2023-03-08T01:23:55;6.00;99.90
48206;DHT22;33995;48.202;16.260;2023-03-08T01:26:24;6.00;99.90
48206;DHT22;33995;48.202;16.260;2023-03-08T01:28:54;5.90;99.90
48206;DHT22;33995;48.202;16.260;2023-03-08T01:31:27;5.90;99.90
48206;DHT22;33995;48.202;16.260;2023-03-08T01:33:56;5.90;99.90
48206;DHT22;33995;48.202;16.260;2023-03-08T01:36:25;5.90;99.90
48206;DHT22;33995;48.202;16.260;2023-03-08T01:38:53;5.90;99.90
48206;DHT22;33995;48.202;16.260;2023-03-08T01:41:30;5.90;99.90
48206;DHT22;33995;48.202;16.260;2023-03-08T01:43:58;5.90;99.90
48206;DHT22;33995;48.202;16.260;2023-03-08T01:46:26;5.80;99.90
48206;DHT22;33995;48.202;16.260;2023-03-08T01:49:25;5.80;99.90
48206;DHT22;33995;48.202;16.260;2023-03-08T01:54:28;5.80;99.90
48206;DHT22;33995;48.202;16.260;2023-03-08T01:57:02;5.80;99.90
48206;DHT22;33995;48.202;16.260;2023-03-08T01:59:32;5.80;99.90
48206;DHT22;33995;48.202;16.260;2023-03-08T02:02:01;5.80;99.90
48206;DHT22;33995;48.202;16.260;2023-03-08T02:04:30;5.80;99.90
48206;DHT22;33995;48.202;16.260;2023-03-08T02:06:57;5.80;99.90
48206;DHT22;33995;48.202;16.260;2023-03-08T02:09:26;5.80;99.90
48206;DHT22;33995;48.202;16.260;2023-03-08T02:11:59;5.80;99.90
48206;DHT22;33995;48.202;16.260;2023-03-08T02:14:29;5.80;99.90
48206;DHT22;33995;48.202;16.260;2023-03-08T02:16:57;5.90;99.90
48206;DHT22;33995;48.202;16.260;2023-03-08T02:19:32;5.80;99.90
48206;DHT22;33995;48.202;16.260;2023-03-08T02:22:12;5.90;99.90
48206;DHT22;33995;48.202;16.260;2023-03-08T02:24:39;5.90;99.90
48206;DHT22;33995;48.202;16.260;2023-03-08T02:27:13;5.80;99.90
48206;DHT22;33995;48.202;16.260;2023-03-08T02:29:44;5.90;99.90
48206;DHT22;33995;48.202;16.260;2023-03-08T02:32:15;5.90;99.90
48206;DHT22;33995;48.202;16.260;2023-03-08T02:34:44;5.90;99.90
48206;DHT22;33995;48.202;16.260;2023-03-08T02:37:11;5.90;99.90
48206;DHT22;33995;48.202;16.260;2023-03-08T02:39:38;5.90;99.90
48206;DHT22;33995;48.202;16.260;2023-03-08T02:42:05;5.90;99.90
48206;DHT22;33995;48.202;16.260;2023-03-08T02:44:34;5.80;99.90
48206;DHT22;33995;48.202;16.260;2023-03-08T02:47:01;5.80;99.90
48206;DHT22;33995;48.202;16.260;2023-03-08T02:49:28;5.90;99.90
48206;DHT22;33995;48.202;16.260;2023-03-08T02:51:56;5.80;99.90
48206;DHT22;33995;48.202;16.260;2023-03-08T02:54:23;5.80;99.90
48206;DHT22;33995;48.202;16.260;2023-03-08T02:56:50;5.70;99.90
48206;DHT22;33995;48.202;16.260;2023-03-08T02:59:17;5.70;99.90
48206;DHT22;33995;48.202;16.260;2023-03-08T03:01:44;5.70;99.90
48206;DHT22;33995;48.202;16.260;2023-03-08T03:04:13;5.70;99.90
48206;DHT22;33995;48.202;16.260;2023-03-08T03:06:40;5.70;99.90
48206;DHT22;33995;48.202;16.260;2023-03-08T03:09:09;5.70;99.90
48206;DHT22;33995;48.202;16.260;2023-03-08T03:11:36;5.60;99.90
48206;DHT22;33995;48.202;16.260;2023-03-08T03:14:03;5.60;99.90
48206;DHT22;33995;48.202;16.260;2023-03-08T03:16:36;5.60;99.90
48206;DHT22;33995;48.202;16.260;2023-03-08T03:19:03;5.60;99.90
48206;DHT22;33995;48.202;16.260;2023-03-08T03:21:32;5.60;99.90
48206;DHT22;33995;48.202;16.260;2023-03-08T03:23:59;5.60;99.90
48206;DHT22;33995;48.202;16.260;2023-03-08T03:26:35;5.50;99.90
48206;DHT22;33995;48.202;16.260;2023-03-08T03:29:03;5.50;99.90
48206;DHT22;33995;48.202;16.260;2023-03-08T03:31:34;5.60;99.90
48206;DHT22;33995;48.202;16.260;2023-03-08T03:34:02;5.50;99.90
48206;DHT22;33995;48.202;16.260;2023-03-08T03:36:30;5.50;99.90
48206;DHT22;33995;48.202;16.260;2023-03-08T03:38:59;5.50;99.90
48206;DHT22;33995;48.202;16.260;2023-03-08T03:41:29;5.60;99.90
48206;DHT22;33995;48.202;16.260;2023-03-08T03:44:05;5.60;99.90
48206;DHT22;33995;48.202;16.260;2023-03-08T03:46:34;5.60;99.90
48206;DHT22;33995;48.202;16.260;2023-03-08T03:49:03;5.60;99.90
48206;DHT22;33995;48.202;16.260;2023-03-08T03:51:35;5.60;99.90
48206;DHT22;33995;48.202;16.260;2023-03-08T03:54:11;5.60;99.90
48206;DHT22;33995;48.202;16.260;2023-03-08T03:56:42;5.60;99.90
48206;DHT22;33995;48.202;16.260;2023-03-08T03:59:09;5.70;99.90
48206;DHT22;33995;48.202;16.260;2023-03-08T04:01:40;5.70;99.90
48206;DHT22;33995;48.202;16.260;2023-03-08T04:04:22;5.70;99.90
48206;DHT22;33995;48.202;16.260;2023-03-08T04:06:52;5.70;99.90
48206;DHT22;33995;48.202;16.260;2023-03-08T04:09:25;5.70;99.90
48206;DHT22;33995;48.202;16.260;2023-03-08T04:12:04;5.70;99.90
48206;DHT22;33995;48.202;16.260;2023-03-08T04:14:33;5.70;99.90
48206;DHT22;33995;48.202;16.260;2023-03-08T04:17:01;5.60;99.90
48206;DHT22;33995;48.202;16.260;2023-03-08T04:19:36;5.70;99.90
48206;DHT22;33995;48.202;16.260;2023-03-08T04:22:04;5.70;99.90
48206;DHT22;33995;48.202;16.260;2023-03-08T04:24:38;5.70;99.90
48206;DHT22;33995;48.202;16.260;2023-03-08T04:27:09;5.70;99.90
48206;DHT22;33995;48.202;16.260;2023-03-08T04:29:37;5.70;99.90
48206;DHT22;33995;48.202;16.260;2023-03-08T04:32:04;5.70;99.90
48206;DHT22;33995;48.202;16.260;2023-03-08T04:34:43;5.70;99.90
48206;DHT22;33995;48.202;16.260;2023-03-08T04:37:13;5.70;99.90
48206;DHT22;33995;48.202;16.260;2023-03-08T04:39:46;5.80;99.90
48206;DHT22;33995;48.202;16.260;2023-03-08T04:42:15;5.70;99.90
48206;DHT22;33995;48.202;16.260;2023-03-08T04:44:43;5.60;99.90
48206;DHT22;33995;48.202;16.260;2023-03-08T04:47:12;5.60;99.90
48206;DHT22;33995;48.202;16.260;2023-03-08T04:49:43;5.60;99.90
48206;DHT22;33995;48.202;16.260;2023-03-08T04:52:11;5.60;99.90
48206;DHT22;33995;48.202;16.260;2023-03-08T04:54:40;5.60;99.90
48206;DHT22;33995;48.202;16.260;2023-03-08T04:57:20;5.60;99.90
48206;DHT22;33995;48.202;16.260;2023-03-08T04:59:50;5.50;99.90
48206;DHT22;33995;48.202;16.260;2023-03-08T05:02:23;5.50;99.90
48206;DHT22;33995;48.202;16.260;2023-03-08T05:04:50;5.50;99.90
48206;DHT22;33995;48.202;16.260;2023-03-08T05:07:17;5.40;99.90
48206;DHT22;33995;48.202;16.260;2023-03-08T05:09:47;5.50;99.90
48206;DHT22;33995;48.202;16.260;2023-03-08T05:12:14;5.50;99.90
48206;DHT22;33995;48.202;16.260;2023-03-08T05:14:47;5.50;99.90
48206;DHT22;33995;48.202;16.260;2023-03-08T05:17:14;5.40;99.90
48206;DHT22;33995;48.202;16.260;2023-03-08T05:19:48;5.30;99.90
48206;DHT22;33995;48.202;16.260;2023-03-08T05:22:21;5.30;99.90
48206;DHT22;33995;48.202;16.260;2023-03-08T05:24:50;5.20;99.90
48206;DHT22;33995;48.202;16.260;2023-03-08T05:27:19;5.20;99.90
48206;DHT22;33995;48.202;16.260;2023-03-08T05:29:46;5.20;99.90
48206;DHT22;33995;48.202;16.260;2023-03-08T05:32:15;5.10;99.90
48206;DHT22;33995;48.202;16.260;2023-03-08T05:34:42;5.10;99.90
48206;DHT22;33995;48.202;16.260;2023-03-08T05:37:15;5.00;99.90
48206;DHT22;33995;48.202;16.260;2023-03-08T05:39:43;5.00;99.90
48206;DHT22;33995;48.202;16.260;2023-03-08T05:42:21;4.90;99.90
48206;DHT22;33995;48.202;16.260;2023-03-08T05:44:48;4.90;99.90
48206;DHT22;33995;48.202;16.260;2023-03-08T05:47:35;4.90;99.90
48206;DHT22;33995;48.202;16.260;2023-03-08T05:50:08;4.80;99.90
48206;DHT22;33995;48.202;16.260;2023-03-08T05:52:38;4.70;99.90
48206;DHT22;33995;48.202;16.260;2023-03-08T05:55:12;4.60;99.90
48206;DHT22;33995;48.202;16.260;2023-03-08T05:57:39;4.60;99.90
48206;DHT22;33995;48.202;16.260;2023-03-08T06:00:07;4.60;99.90
48206;DHT22;33995;48.202;16.260;2023-03-08T06:02:41;4.70;99.90
48206;DHT22;33995;48.202;16.260;2023-03-08T06:05:10;4.70;99.90
48206;DHT22;33995;48.202;16.260;2023-03-08T06:07:37;4.70;99.90
48206;DHT22;33995;48.202;16.260;2023-03-08T06:10:09;4.80;99.90
48206;DHT22;33995;48.202;16.260;2023-03-08T06:12:37;4.80;99.90
48206;DHT22;33995;48.202;16.260;2023-03-08T06:15:08;4.90;99.90
48206;DHT22;33995;48.202;16.260;2023-03-08T06:17:36;5.00;99.90
48206;DHT22;33995;48.202;16.260;2023-03-08T06:20:05;5.00;99.90
48206;DHT22;33995;48.202;16.260;2023-03-08T06:22:35;5.10;99.90
48206;DHT22;33995;48.202;16.260;2023-03-08T06:25:10;5.10;99.90
48206;DHT22;33995;48.202;16.260;2023-03-08T06:27:38;5.20;99.90
48206;DHT22;33995;48.202;16.260;2023-03-08T06:30:34;5.30;99.90
48206;DHT22;33995;48.202;16.260;2023-03-08T06:33:03;5.50;99.90
48206;DHT22;33995;48.202;16.260;2023-03-08T06:35:30;5.70;99.90
48206;DHT22;33995;48.202;16.260;2023-03-08T06:38:00;5.90;99.90
48206;DHT22;33995;48.202;16.260;2023-03-08T06:40:27;6.10;99.90
48206;DHT22;33995;48.202;16.260;2023-03-08T06:42:54;6.30;99.90
48206;DHT22;33995;48.202;16.260;2023-03-08T06:45:22;6.60;99.90
48206;DHT22;33995;48.202;16.260;2023-03-08T06:47:49;6.80;99.90
48206;DHT22;33995;48.202;16.260;2023-03-08T06:50:19;6.90;99.90
48206;DHT22;33995;48.202;16.260;2023-03-08T06:52:49;7.10;99.90
48206;DHT22;33995;48.202;16.260;2023-03-08T06:55:27;7.30;99.90
48206;DHT22;33995;48.202;16.260;2023-03-08T06:57:54;7.50;99.90
48206;DHT22;33995;48.202;16.260;2023-03-08T07:00:22;7.70;99.90
48206;DHT22;33995;48.202;16.260;2023-03-08T07:02:49;7.90;99.90
48206;DHT22;33995;48.202;16.260;2023-03-08T07:05:16;8.20;99.90
48206;DHT22;33995;48.202;16.260;2023-03-08T07:07:43;8.30;99.90
48206;DHT22;33995;48.202;16.260;2023-03-08T07:10:13;8.50;99.90
48206;DHT22;33995;48.202;16.260;2023-03-08T07:12:42;8.70;99.90
48206;DHT22;33995;48.202;16.260;2023-03-08T07:15:16;8.80;99.90
48206;DHT22;33995;48.202;16.260;2023-03-08T07:17:45;9.00;99.90
48206;DHT22;33995;48.202;16.260;2023-03-08T07:20:14;9.20;99.90
48206;DHT22;33995;48.202;16.260;2023-03-08T07:22:42;9.40;99.90
48206;DHT22;33995;48.202;16.260;2023-03-08T07:25:11;9.60;99.90
48206;DHT22;33995;48.202;16.260;2023-03-08T07:27:39;9.70;99.90
48206;DHT22;33995;48.202;16.260;2023-03-08T07:30:07;9.70;99.90
48206;DHT22;33995;48.202;16.260;2023-03-08T07:32:36;9.80;99.50
48206;DHT22;33995;48.202;16.260;2023-03-08T07:35:09;9.90;99.10
48206;DHT22;33995;48.202;16.260;2023-03-08T07:37:37;9.90;99.30
48206;DHT22;33995;48.202;16.260;2023-03-08T07:40:05;10.10;98.60
48206;DHT22;33995;48.202;16.260;2023-03-08T07:42:33;10.10;98.00
48206;DHT22;33995;48.202;16.260;2023-03-08T07:45:11;10.30;97.90
48206;DHT22;33995;48.202;16.260;2023-03-08T07:47:39;10.30;97.20
48206;DHT22;33995;48.202;16.260;2023-03-08T07:50:08;10.50;97.30
48206;DHT22;33995;48.202;16.260;2023-03-08T07:52:37;10.70;97.30
48206;DHT22;33995;48.202;16.260;2023-03-08T07:55:05;11.00;98.20
48206;DHT22;33995;48.202;16.260;2023-03-08T07:57:32;11.10;98.40
48206;DHT22;33995;48.202;16.260;2023-03-08T07:59:59;10.90;97.70
48206;DHT22;33995;48.202;16.260;2023-03-08T08:02:26;11.30;96.40
48206;DHT22;33995;48.202;16.260;2023-03-08T08:04:54;11.10;95.00
48206;DHT22;33995;48.202;16.260;2023-03-08T08:07:23;10.70;94.60
48206;DHT22;33995;48.202;16.260;2023-03-08T08:09:52;10.70;94.50
48206;DHT22;33995;48.202;16.260;2023-03-08T08:12:20;10.80;94.60
48206;DHT22;33995;48.202;16.260;2023-03-08T08:14:51;11.00;94.00
48206;DHT22;33995;48.202;16.260;2023-03-08T08:17:19;11.00;93.90
48206;DHT22;33995;48.202;16.260;2023-03-08T08:19:46;11.10;94.00
48206;DHT22;33995;48.202;16.260;2023-03-08T08:22:14;11.00;93.70
48206;DHT22;33995;48.202;16.260;2023-03-08T08:24:42;11.10;93.30
48206;DHT22;33995;48.202;16.260;2023-03-08T08:27:09;11.10;93.30
48206;DHT22;33995;48.202;16.260;2023-03-08T08:29:37;11.00;92.90
48206;DHT22;33995;48.202;16.260;2023-03-08T08:32:04;11.00;93.40
48206;DHT22;33995;48.202;16.260;2023-03-08T08:34:32;11.20;93.30
48206;DHT22;33995;48.202;16.260;2023-03-08T08:36:59;11.30;94.00
48206;DHT22;33995;48.202;16.260;2023-03-08T08:39:26;11.30;92.80
48206;DHT22;33995;48.202;16.260;2023-03-08T08:41:53;11.30;92.80
48206;DHT22;33995;48.202;16.260;2023-03-08T08:44:20;11.30;92.60
48206;DHT22;33995;48.202;16.260;2023-03-08T08:46:47;10.90;92.10
48206;DHT22;33995;48.202;16.260;2023-03-08T08:49:14;11.10;92.70
48206;DHT22;33995;48.202;16.260;2023-03-08T08:51:41;11.30;92.30
48206;DHT22;33995;48.202;16.260;2023-03-08T08:54:08;11.10;92.10
48206;DHT22;33995;48.202;16.260;2023-03-08T08:56:35;11.10;92.50
48206;DHT22;33995;48.202;16.260;2023-03-08T08:59:10;11.20;93.00
48206;DHT22;33995;48.202;16.260;2023-03-08T09:01:38;11.20;92.80
48206;DHT22;33995;48.202;16.260;2023-03-08T09:04:13;11.50;92.80
48206;DHT22;33995;48.202;16.260;2023-03-08T09:06:43;11.40;92.50
48206;DHT22;33995;48.202;16.260;2023-03-08T09:09:10;11.70;92.80
48206;DHT22;33995;48.202;16.260;2023-03-08T09:11:37;11.60;92.60
48206;DHT22;33995;48.202;16.260;2023-03-08T09:14:19;11.80;92.60
48206;DHT22;33995;48.202;16.260;2023-03-08T09:16:47;11.50;91.90
48206;DHT22;33995;48.202;16.260;2023-03-08T09:19:17;11.80;93.10
48206;DHT22;33995;48.202;16.260;2023-03-08T09:21:44;11.70;92.20
48206;DHT22;33995;48.202;16.260;2023-03-08T09:24:13;11.70;92.60
48206;DHT22;33995;48.202;16.260;2023-03-08T09:26:41;11.70;92.30
48206;DHT22;33995;48.202;16.260;2023-03-08T09:29:11;11.60;91.80
48206;DHT22;33995;48.202;16.260;2023-03-08T09:31:39;11.50;91.90
48206;DHT22;33995;48.202;16.260;2023-03-08T09:34:10;11.20;91.50
48206;DHT22;33995;48.202;16.260;2023-03-08T09:36:38;11.30;92.30
48206;DHT22;33995;48.202;16.260;2023-03-08T09:39:11;11.50;92.00
48206;DHT22;33995;48.202;16.260;2023-03-08T09:41:48;11.30;92.10
48206;DHT22;33995;48.202;16.260;2023-03-08T09:44:46;11.30;92.60
48206;DHT22;33995;48.202;16.260;2023-03-08T09:52:54;11.30;92.10
48206;DHT22;33995;48.202;16.260;2023-03-08T09:55:27;11.40;92.10
48206;DHT22;33995;48.202;16.260;2023-03-08T10:01:15;11.10;92.60
48206;DHT22;33995;48.202;16.260;2023-03-08T10:06:43;11.20;92.60
48206;DHT22;33995;48.202;16.260;2023-03-08T10:09:34;11.00;92.40
48206;DHT22;33995;48.202;16.260;2023-03-08T10:12:45;10.90;92.50
48206;DHT22;33995;48.202;16.260;2023-03-08T10:15:16;10.80;92.30
48206;DHT22;33995;48.202;16.260;2023-03-08T10:17:56;10.60;92.50
48206;DHT22;33995;48.202;16.260;2023-03-08T10:20:27;10.70;92.80
48206;DHT22;33995;48.202;16.260;2023-03-08T10:23:02;10.70;92.60
48206;DHT22;33995;48.202;16.260;2023-03-08T10:25:33;10.70;93.00
48206;DHT22;33995;48.202;16.260;2023-03-08T10:28:02;10.60;93.40
48206;DHT22;33995;48.202;16.260;2023-03-08T10:30:44;10.50;93.90
48206;DHT22;33995;48.202;16.260;2023-03-08T10:33:14;10.40;94.10
48206;DHT22;33995;48.202;16.260;2023-03-08T10:36:15;10.40;94.20
48206;DHT22;33995;48.202;16.260;2023-03-08T10:38:43;10.30;94.50
48206;DHT22;33995;48.202;16.260;2023-03-08T10:41:21;10.30;94.60
48206;DHT22;33995;48.202;16.260;2023-03-08T10:43:50;10.30;94.90
48206;DHT22;33995;48.202;16.260;2023-03-08T10:46:25;10.40;94.70
48206;DHT22;33995;48.202;16.260;2023-03-08T10:48:54;10.50;95.00
48206;DHT22;33995;48.202;16.260;2023-03-08T10:51:33;10.60;95.10
48206;DHT22;33995;48.202;16.260;2023-03-08T10:54:03;10.50;95.10
48206;DHT22;33995;48.202;16.260;2023-03-08T10:59:12;10.40;95.50
48206;DHT22;33995;48.202;16.260;2023-03-08T11:01:52;10.50;95.60
48206;DHT22;33995;48.202;16.260;2023-03-08T11:04:27;10.70;95.70
48206;DHT22;33995;48.202;16.260;2023-03-08T11:06:55;10.80;96.00
48206;DHT22;33995;48.202;16.260;2023-03-08T11:09:26;10.80;96.00
48206;DHT22;33995;48.202;16.260;2023-03-08T11:11:55;11.10;96.10
48206;DHT22;33995;48.202;16.260;2023-03-08T11:14:23;11.20;95.90
48206;DHT22;33995;48.202;16.260;2023-03-08T11:25:35;11.90;95.60
48206;DHT22;33995;48.202;16.260;2023-03-08T11:30:52;11.70;96.00
48206;DHT22;33995;48.202;16.260;2023-03-08T11:36:30;11.40;96.70
48206;DHT22;33995;48.202;16.260;2023-03-08T11:39:17;11.40;96.40
48206;DHT22;33995;48.202;16.260;2023-03-08T11:41:55;11.40;96.40
48206;DHT22;33995;48.202;16.260;2023-03-08T11:47:15;11.30;96.20
48206;DHT22;33995;48.202;16.260;2023-03-08T11:56:02;10.90;96.50
48206;DHT22;33995;48.202;16.260;2023-03-08T11:58:51;10.70;96.20
48206;DHT22;33995;48.202;16.260;2023-03-08T12:01:28;10.80;96.70
48206;DHT22;33995;48.202;16.260;2023-03-08T12:03:59;10.70;96.90
48206;DHT22;33995;48.202;16.260;2023-03-08T12:06:34;10.60;96.80
48206;DHT22;33995;48.202;16.260;2023-03-08T12:09:48;10.70;97.20
48206;DHT22;33995;48.202;16.260;2023-03-08T12:12:30;10.60;97.10
48206;DHT22;33995;48.202;16.260;2023-03-08T12:15:12;10.60;97.30
48206;DHT22;33995;48.202;16.260;2023-03-08T12:17:51;10.60;97.30
48206;DHT22;33995;48.202;16.260;2023-03-08T12:20:20;10.60;97.30
48206;DHT22;33995;48.202;16.260;2023-03-08T12:23:07;10.50;97.60
48206;DHT22;33995;48.202;16.260;2023-03-08T12:25:40;10.50;97.80
48206;DHT22;33995;48.202;16.260;2023-03-08T12:28:30;10.50;97.90
48206;DHT22;33995;48.202;16.260;2023-03-08T12:33:57;10.50;98.10
48206;DHT22;33995;48.202;16.260;2023-03-08T12:36:43;10.50;98.30
48206;DHT22;33995;48.202;16.260;2023-03-08T12:39:34;10.50;98.60
48206;DHT22;33995;48.202;16.260;2023-03-08T12:42:14;10.40;99.40
48206;DHT22;33995;48.202;16.260;2023-03-08T12:44:41;10.30;99.90
48206;DHT22;33995;48.202;16.260;2023-03-08T12:49:44;10.10;99.90
48206;DHT22;33995;48.202;16.260;2023-03-08T12:55:04;10.20;99.90
48206;DHT22;33995;48.202;16.260;2023-03-08T12:57:39;10.20;99.90
48206;DHT22;33995;48.202;16.260;2023-03-08T13:00:31;10.20;99.90
48206;DHT22;33995;48.202;16.260;2023-03-08T13:03:05;10.20;99.90
48206;DHT22;33995;48.202;16.260;2023-03-08T13:05:51;10.00;99.90
48206;DHT22;33995;48.202;16.260;2023-03-08T13:08:22;10.00;99.90
48206;DHT22;33995;48.202;16.260;2023-03-08T13:11:08;9.90;99.90
48206;DHT22;33995;48.202;16.260;2023-03-08T13:16:20;10.10;99.90
48206;DHT22;33995;48.202;16.260;2023-03-08T13:18:49;10.20;99.90
48206;DHT22;33995;48.202;16.260;2023-03-08T13:21:37;10.20;99.90
48206;DHT22;33995;48.202;16.260;2023-03-08T13:29:31;10.30;99.90
48206;DHT22;33995;48.202;16.260;2023-03-08T13:32:17;10.50;99.90
48206;DHT22;33995;48.202;16.260;2023-03-08T13:35:00;10.60;99.90
48206;DHT22;33995;48.202;16.260;2023-03-08T13:37:29;10.70;99.90
48206;DHT22;33995;48.202;16.260;2023-03-08T13:39:58;10.90;99.90
48206;DHT22;33995;48.202;16.260;2023-03-08T13:42:27;11.10;99.90
48206;DHT22;33995;48.202;16.260;2023-03-08T13:45:07;11.00;99.90
48206;DHT22;33995;48.202;16.260;2023-03-08T13:47:37;10.80;99.90
48206;DHT22;33995;48.202;16.260;2023-03-08T13:50:06;11.00;99.90
48206;DHT22;33995;48.202;16.260;2023-03-08T13:52:35;11.00;99.90
48206;DHT22;33995;48.202;16.260;2023-03-08T13:55:06;11.00;99.90
48206;DHT22;33995;48.202;16.260;2023-03-08T13:57:36;11.00;99.90
48206;DHT22;33995;48.202;16.260;2023-03-08T14:00:32;11.00;99.90
48206;DHT22;33995;48.202;16.260;2023-03-08T14:03:01;11.20;99.90
48206;DHT22;33995;48.202;16.260;2023-03-08T14:05:40;11.30;99.90
48206;DHT22;33995;48.202;16.260;2023-03-08T14:08:22;11.20;99.90
48206;DHT22;33995;48.202;16.260;2023-03-08T14:10:57;11.30;99.90
48206;DHT22;33995;48.202;16.260;2023-03-08T14:13:36;11.20;99.90
48206;DHT22;33995;48.202;16.260;2023-03-08T14:16:06;11.30;99.90
48206;DHT22;33995;48.202;16.260;2023-03-08T14:18:35;11.30;99.90
48206;DHT22;33995;48.202;16.260;2023-03-08T14:21:23;11.40;99.90
48206;DHT22;33995;48.202;16.260;2023-03-08T14:23:56;11.20;99.90
48206;DHT22;33995;48.202;16.260;2023-03-08T14:26:38;11.30;99.90
48206;DHT22;33995;48.202;16.260;2023-03-08T14:31:35;11.40;99.90
48206;DHT22;33995;48.202;16.260;2023-03-08T14:34:27;11.40;99.90
48206;DHT22;33995;48.202;16.260;2023-03-08T14:37:06;11.40;99.90
48206;DHT22;33995;48.202;16.260;2023-03-08T14:39:45;11.20;99.90
48206;DHT22;33995;48.202;16.260;2023-03-08T14:44:59;11.20;99.90
48206;DHT22;33995;48.202;16.260;2023-03-08T14:47:29;11.20;99.90
48206;DHT22;33995;48.202;16.260;2023-03-08T14:50:17;11.40;99.90
48206;DHT22;33995;48.202;16.260;2023-03-08T14:52:46;11.80;99.90
48206;DHT22;33995;48.202;16.260;2023-03-08T14:55:31;12.40;99.90
48206;DHT22;33995;48.202;16.260;2023-03-08T14:58:07;12.60;99.90
48206;DHT22;33995;48.202;16.260;2023-03-08T15:00:36;12.70;99.90
48206;DHT22;33995;48.202;16.260;2023-03-08T15:03:03;12.70;99.90
48206;DHT22;33995;48.202;16.260;2023-03-08T15:05:32;12.80;99.90
48206;DHT22;33995;48.202;16.260;2023-03-08T15:07:59;13.60;99.90
48206;DHT22;33995;48.202;16.260;2023-03-08T15:10:35;15.10;99.50
48206;DHT22;33995;48.202;16.260;2023-03-08T15:13:05;15.80;98.30
48206;DHT22;33995;48.202;16.260;2023-03-08T15:15:33;16.60;97.30
48206;DHT22;33995;48.202;16.260;2023-03-08T15:18:03;16.50;96.50
48206;DHT22;33995;48.202;16.260;2023-03-08T15:20:30;15.50;97.30
48206;DHT22;33995;48.202;16.260;2023-03-08T15:23:05;14.70;97.90
48206;DHT22;33995;48.202;16.260;2023-03-08T15:25:36;14.10;98.80
48206;DHT22;33995;48.202;16.260;2023-03-08T15:28:04;13.80;99.40
48206;DHT22;33995;48.202;16.260;2023-03-08T15:30:32;13.80;99.60
48206;DHT22;33995;48.202;16.260;2023-03-08T15:32:59;13.70;99.60
48206;DHT22;33995;48.202;16.260;2023-03-08T15:35:29;13.60;99.90
48206;DHT22;33995;48.202;16.260;2023-03-08T15:37:56;13.40;99.90
48206;DHT22;33995;48.202;16.260;2023-03-08T15:40:28;13.20;99.90
48206;DHT22;33995;48.202;16.260;2023-03-08T15:42:55;13.10;99.90
48206;DHT22;33995;48.202;16.260;2023-03-08T15:45:23;13.00;99.90
48206;DHT22;33995;48.202;16.260;2023-03-08T15:48:06;12.90;99.90
48206;DHT22;33995;48.202;16.260;2023-03-08T15:50:33;12.80;99.90
48206;DHT22;33995;48.202;16.260;2023-03-08T15:53:01;12.50;99.90
48206;DHT22;33995;48.202;16.260;2023-03-08T15:55:29;12.40;99.90
48206;DHT22;33995;48.202;16.260;2023-03-08T15:57:57;12.30;99.90
48206;DHT22;33995;48.202;16.260;2023-03-08T16:00:25;12.20;99.90
48206;DHT22;33995;48.202;16.260;2023-03-08T16:02:56;12.00;99.90
48206;DHT22;33995;48.202;16.260;2023-03-08T16:05:24;11.90;99.90
48206;DHT22;33995;48.202;16.260;2023-03-08T16:07:56;11.90;99.90
48206;DHT22;33995;48.202;16.260;2023-03-08T16:10:26;11.80;99.90
48206;DHT22;33995;48.202;16.260;2023-03-08T16:12:56;11.80;99.90
48206;DHT22;33995;48.202;16.260;2023-03-08T16:15:23;11.80;99.90
48206;DHT22;33995;48.202;16.260;2023-03-08T16:17:50;11.60;99.90
48206;DHT22;33995;48.202;16.260;2023-03-08T16:20:18;11.60;99.90
48206;DHT22;33995;48.202;16.260;2023-03-08T16:22:46;11.60;99.90
48206;DHT22;33995;48.202;16.260;2023-03-08T16:25:13;11.60;99.90
48206;DHT22;33995;48.202;16.260;2023-03-08T16:27:40;11.50;99.90
48206;DHT22;33995;48.202;16.260;2023-03-08T16:30:11;11.50;99.90
48206;DHT22;33995;48.202;16.260;2023-03-08T16:32:38;11.50;99.90
48206;DHT22;33995;48.202;16.260;2023-03-08T16:35:05;11.40;99.90
48206;DHT22;33995;48.202;16.260;2023-03-08T16:37:32;11.30;99.90
48206;DHT22;33995;48.202;16.260;2023-03-08T16:39:59;11.20;99.90
48206;DHT22;33995;48.202;16.260;2023-03-08T16:42:28;11.20;99.90
48206;DHT22;33995;48.202;16.260;2023-03-08T16:44:56;11.00;99.90
48206;DHT22;33995;48.202;16.260;2023-03-08T16:47:24;10.90;99.90
48206;DHT22;33995;48.202;16.260;2023-03-08T16:49:54;10.90;99.90
48206;DHT22;33995;48.202;16.260;2023-03-08T16:52:21;10.80;99.90